sensor_id;sensor_type;location;lat;lon;timestamp;temperature;humidity
26721;HTU21D;15950;51.112;6.966;2023-07-13T00:01:51;20.71;49.44
26721;HTU21D;15950;51.112;6.966;2023-07-13T00:04:51;20.38;50.72
26721;HTU21D;15950;51.112;6.966;2023-07-13T00:07:51;20.54;50.41
26721;HTU21D;15950;51.112;6.966;2023-07-13T00:10:52;20.18;51.38
26721;HTU21D;15950;51.112;6.966;2023-07-13T00:13:51;20.04;51.75
26721;HTU21D;15950;51.112;6.966;2023-07-13T00:16:51;20.22;51.70
26721;HTU21D;15950;51.112;6.966;2023-07-13T00:19:51;20.21;51.45
26721;HTU21D;15950;51.112;6.966;2023-07-13T00:22:52;20.06;52.08
26721;HTU21D;15950;51.112;6.966;2023-07-13T00:25:51;20.20;51.98
26721;HTU21D;15950;51.112;6.966;2023-07-13T00:28:51;19.77;53.66
26721;HTU21D;15950;51.112;6.966;2023-07-13T00:31:51;19.87;53.49
26721;HTU21D;15950;51.112;6.966;2023-07-13T00:34:52;19.69;53.81
26721;HTU21D;15950;51.112;6.966;2023-07-13T00:37:51;20.04;52.62
26721;HTU21D;15950;51.112;6.966;2023-07-13T00:40:51;20.01;52.43
26721;HTU21D;15950;51.112;6.966;2023-07-13T00:43:51;19.80;53.46
26721;HTU21D;15950;51.112;6.966;2023-07-13T00:46:51;19.86;53.49
26721;HTU21D;15950;51.112;6.966;2023-07-13T00:49:51;19.99;52.72
26721;HTU21D;15950;51.112;6.966;2023-07-13T00:52:54;19.86;53.33
26721;HTU21D;15950;51.112;6.966;2023-07-13T00:55:51;19.51;54.56
26721;HTU21D;15950;51.112;6.966;2023-07-13T00:58:51;19.40;54.93
26721;HTU21D;15950;51.112;6.966;2023-07-13T01:01:51;19.61;54.49
26721;HTU21D;15950;51.112;6.966;2023-07-13T01:04:51;19.59;54.27
26721;HTU21D;15950;51.112;6.966;2023-07-13T01:07:51;19.46;54.81
26721;HTU21D;15950;51.112;6.966;2023-07-13T01:10:56;19.51;54.86
26721;HTU21D;15950;51.112;6.966;2023-07-13T01:13:51;19.17;55.77
26721;HTU21D;15950;51.112;6.966;2023-07-13T01:16:51;19.01;56.33
26721;HTU21D;15950;51.112;6.966;2023-07-13T01:19:51;19.20;55.85
26721;HTU21D;15950;51.112;6.966;2023-07-13T01:22:51;18.94;56.35
26721;HTU21D;15950;51.112;6.966;2023-07-13T01:25:51;18.83;56.90
26721;HTU21D;15950;51.112;6.966;2023-07-13T01:28:51;19.06;56.23
26721;HTU21D;15950;51.112;6.966;2023-07-13T01:31:51;18.91;56.78
26721;HTU21D;15950;51.112;6.966;2023-07-13T01:34:51;18.70;57.51
26721;HTU21D;15950;51.112;6.966;2023-07-13T01:37:51;18.47;58.26
26721;HTU21D;15950;51.112;6.966;2023-07-13T01:40:52;18.31;59.25
26721;HTU21D;15950;51.112;6.966;2023-07-13T01:43:51;18.31;59.56
26721;HTU21D;15950;51.112;6.966;2023-07-13T01:46:51;18.10;59.73
26721;HTU21D;15950;51.112;6.966;2023-07-13T01:49:51;18.15;59.92
26721;HTU21D;15950;51.112;6.966;2023-07-13T01:52:51;18.26;59.52
26721;HTU21D;15950;51.112;6.966;2023-07-13T01:55:51;18.22;59.56
26721;HTU21D;15950;51.112;6.966;2023-07-13T01:58:52;18.15;59.64
26721;HTU21D;15950;51.112;6.966;2023-07-13T02:01:51;18.01;60.35
26721;HTU21D;15950;51.112;6.966;2023-07-13T02:04:51;18.22;59.90
26721;HTU21D;15950;51.112;6.966;2023-07-13T02:07:51;18.09;59.97
26721;HTU21D;15950;51.112;6.966;2023-07-13T02:10:51;17.70;61.57
26721;HTU21D;15950;51.112;6.966;2023-07-13T02:13:51;18.09;60.22
26721;HTU21D;15950;51.112;6.966;2023-07-13T02:16:51;17.56;61.81
26721;HTU21D;15950;51.112;6.966;2023-07-13T02:19:51;17.49;62.54
26721;HTU21D;15950;51.112;6.966;2023-07-13T02:22:51;17.71;61.89
26721;HTU21D;15950;51.112;6.966;2023-07-13T02:25:57;17.54;61.91
26721;HTU21D;15950;51.112;6.966;2023-07-13T02:28:51;17.52;62.26
26721;HTU21D;15950;51.112;6.966;2023-07-13T02:31:51;17.56;62.16
26721;HTU21D;15950;51.112;6.966;2023-07-13T02:34:51;17.84;61.15
26721;HTU21D;15950;51.112;6.966;2023-07-13T02:37:51;17.87;60.67
26721;HTU21D;15950;51.112;6.966;2023-07-13T02:40:51;17.79;61.21
26721;HTU21D;15950;51.112;6.966;2023-07-13T02:43:51;17.85;61.28
26721;HTU21D;15950;51.112;6.966;2023-07-13T02:46:51;17.61;61.89
26721;HTU21D;15950;51.112;6.966;2023-07-13T02:49:51;17.53;62.38
26721;HTU21D;15950;51.112;6.966;2023-07-13T02:52:51;17.27;63.05
26721;HTU21D;15950;51.112;6.966;2023-07-13T02:55:51;17.74;61.66
26721;HTU21D;15950;51.112;6.966;2023-07-13T02:58:51;17.64;61.67
26721;HTU21D;15950;51.112;6.966;2023-07-13T03:01:51;17.84;61.40
26721;HTU21D;15950;51.112;6.966;2023-07-13T03:04:51;17.79;61.10
26721;HTU21D;15950;51.112;6.966;2023-07-13T03:07:51;17.71;61.60
26721;HTU21D;15950;51.112;6.966;2023-07-13T03:10:59;17.54;61.52
26721;HTU21D;15950;51.112;6.966;2023-07-13T03:13:51;17.89;60.89
26721;HTU21D;15950;51.112;6.966;2023-07-13T03:16:51;17.80;61.35
26721;HTU21D;15950;51.112;6.966;2023-07-13T03:19:51;17.83;61.48
26721;HTU21D;15950;51.112;6.966;2023-07-13T03:22:51;17.79;60.95
26721;HTU21D;15950;51.112;6.966;2023-07-13T03:26:00;17.61;62.07
26721;HTU21D;15950;51.112;6.966;2023-07-13T03:28:51;17.74;61.69
26721;HTU21D;15950;51.112;6.966;2023-07-13T03:31:51;17.66;61.51
26721;HTU21D;15950;51.112;6.966;2023-07-13T03:34:51;17.79;61.34
26721;HTU21D;15950;51.112;6.966;2023-07-13T03:37:51;17.66;61.70
26721;HTU21D;15950;51.112;6.966;2023-07-13T03:40:51;17.40;63.05
26721;HTU21D;15950;51.112;6.966;2023-07-13T03:43:51;17.38;63.20
26721;HTU21D;15950;51.112;6.966;2023-07-13T03:46:51;17.58;62.41
26721;HTU21D;15950;51.112;6.966;2023-07-13T03:49:51;17.44;62.94
26721;HTU21D;15950;51.112;6.966;2023-07-13T03:52:51;17.36;63.20
26721;HTU21D;15950;51.112;6.966;2023-07-13T03:55:51;17.49;63.03
26721;HTU21D;15950;51.112;6.966;2023-07-13T03:58:51;16.98;64.44
26721;HTU21D;15950;51.112;6.966;2023-07-13T04:01:51;16.87;64.82
26721;HTU21D;15950;51.112;6.966;2023-07-13T04:04:51;17.08;64.35
26721;HTU21D;15950;51.112;6.966;2023-07-13T04:07:50;17.13;63.98
26721;HTU21D;15950;51.112;6.966;2023-07-13T04:10:50;17.17;63.81
26721;HTU21D;15950;51.112;6.966;2023-07-13T04:13:51;17.26;63.73
26721;HTU21D;15950;51.112;6.966;2023-07-13T04:16:51;16.94;64.69
26721;HTU21D;15950;51.112;6.966;2023-07-13T04:19:51;17.02;64.95
26721;HTU21D;15950;51.112;6.966;2023-07-13T04:22:51;17.18;64.59
26721;HTU21D;15950;51.112;6.966;2023-07-13T04:25:52;17.03;64.67
26721;HTU21D;15950;51.112;6.966;2023-07-13T04:28:51;17.01;65.27
26721;HTU21D;15950;51.112;6.966;2023-07-13T04:31:50;17.28;64.98
26721;HTU21D;15950;51.112;6.966;2023-07-13T04:34:50;17.29;64.41
26721;HTU21D;15950;51.112;6.966;2023-07-13T04:37:50;17.18;65.42
26721;HTU21D;15950;51.112;6.966;2023-07-13T04:40:51;17.23;65.88
26721;HTU21D;15950;51.112;6.966;2023-07-13T04:43:50;17.47;64.43
26721;HTU21D;15950;51.112;6.966;2023-07-13T04:46:50;17.12;65.88
26721;HTU21D;15950;51.112;6.966;2023-07-13T04:49:51;17.24;65.01
26721;HTU21D;15950;51.112;6.966;2023-07-13T04:52:50;17.28;64.72
26721;HTU21D;15950;51.112;6.966;2023-07-13T04:55:51;17.37;64.88
26721;HTU21D;15950;51.112;6.966;2023-07-13T04:58:50;17.26;64.95
26721;HTU21D;15950;51.112;6.966;2023-07-13T05:01:50;17.24;65.46
26721;HTU21D;15950;51.112;6.966;2023-07-13T05:04:50;17.41;64.87
26721;HTU21D;15950;51.112;6.966;2023-07-13T05:07:51;17.44;64.67
26721;HTU21D;15950;51.112;6.966;2023-07-13T05:10:51;17.11;65.69
26721;HTU21D;15950;51.112;6.966;2023-07-13T05:13:50;17.30;65.45
26721;HTU21D;15950;51.112;6.966;2023-07-13T05:16:50;17.27;65.46
26721;HTU21D;15950;51.112;6.966;2023-07-13T05:19:51;17.39;65.75
26721;HTU21D;15950;51.112;6.966;2023-07-13T05:22:50;17.43;65.30
26721;HTU21D;15950;51.112;6.966;2023-07-13T05:25:50;17.45;65.20
26721;HTU21D;15950;51.112;6.966;2023-07-13T05:28:50;17.54;65.06
26721;HTU21D;15950;51.112;6.966;2023-07-13T05:31:51;17.52;65.01
26721;HTU21D;15950;51.112;6.966;2023-07-13T05:34:50;17.78;64.92
26721;HTU21D;15950;51.112;6.966;2023-07-13T05:37:50;17.91;64.79
26721;HTU21D;15950;51.112;6.966;2023-07-13T05:40:54;18.09;64.40
26721;HTU21D;15950;51.112;6.966;2023-07-13T05:43:50;18.12;64.14
26721;HTU21D;15950;51.112;6.966;2023-07-13T05:46:51;18.11;63.93
26721;HTU21D;15950;51.112;6.966;2023-07-13T05:49:50;18.08;64.26
26721;HTU21D;15950;51.112;6.966;2023-07-13T05:52:50;17.65;65.86
26721;HTU21D;15950;51.112;6.966;2023-07-13T05:55:50;17.87;65.04
26721;HTU21D;15950;51.112;6.966;2023-07-13T05:58:50;17.94;64.95
26721;HTU21D;15950;51.112;6.966;2023-07-13T06:01:51;18.27;64.47
26721;HTU21D;15950;51.112;6.966;2023-07-13T06:04:50;18.19;65.13
26721;HTU21D;15950;51.112;6.966;2023-07-13T06:07:50;18.30;65.36
26721;HTU21D;15950;51.112;6.966;2023-07-13T06:10:50;18.35;64.81
26721;HTU21D;15950;51.112;6.966;2023-07-13T06:13:51;18.37;65.04
26721;HTU21D;15950;51.112;6.966;2023-07-13T06:16:50;18.27;65.35
26721;HTU21D;15950;51.112;6.966;2023-07-13T06:19:50;18.34;65.14
26721;HTU21D;15950;51.112;6.966;2023-07-13T06:22:50;18.40;65.28
26721;HTU21D;15950;51.112;6.966;2023-07-13T06:25:51;18.47;65.11
26721;HTU21D;15950;51.112;6.966;2023-07-13T06:28:50;18.39;65.58
26721;HTU21D;15950;51.112;6.966;2023-07-13T06:31:50;18.18;65.62
26721;HTU21D;15950;51.112;6.966;2023-07-13T06:34:50;18.41;65.54
26721;HTU21D;15950;51.112;6.966;2023-07-13T06:37:50;18.71;64.97
26721;HTU21D;15950;51.112;6.966;2023-07-13T06:40:51;18.69;65.01
26721;HTU21D;15950;51.112;6.966;2023-07-13T06:43:50;18.82;64.88
26721;HTU21D;15950;51.112;6.966;2023-07-13T06:46:50;18.69;65.16
26721;HTU21D;15950;51.112;6.966;2023-07-13T06:49:50;18.61;65.36
26721;HTU21D;15950;51.112;6.966;2023-07-13T06:52:50;18.81;64.59
26721;HTU21D;15950;51.112;6.966;2023-07-13T06:55:51;18.92;64.60
26721;HTU21D;15950;51.112;6.966;2023-07-13T06:58:50;18.90;64.47
26721;HTU21D;15950;51.112;6.966;2023-07-13T07:01:50;19.04;64.37
26721;HTU21D;15950;51.112;6.966;2023-07-13T07:04:50;19.10;64.06
26721;HTU21D;15950;51.112;6.966;2023-07-13T07:07:53;19.10;64.18
26721;HTU21D;15950;51.112;6.966;2023-07-13T07:10:50;19.13;64.07
26721;HTU21D;15950;51.112;6.966;2023-07-13T07:13:52;19.10;64.42
26721;HTU21D;15950;51.112;6.966;2023-07-13T07:16:50;18.99;64.82
26721;HTU21D;15950;51.112;6.966;2023-07-13T07:19:50;19.00;64.41
26721;HTU21D;15950;51.112;6.966;2023-07-13T07:22:50;19.19;64.24
26721;HTU21D;15950;51.112;6.966;2023-07-13T07:25:50;19.06;64.39
26721;HTU21D;15950;51.112;6.966;2023-07-13T07:28:50;18.97;64.71
26721;HTU21D;15950;51.112;6.966;2023-07-13T07:31:50;19.20;64.42
26721;HTU21D;15950;51.112;6.966;2023-07-13T07:34:50;19.03;64.48
26721;HTU21D;15950;51.112;6.966;2023-07-13T07:37:50;19.09;64.09
26721;HTU21D;15950;51.112;6.966;2023-07-13T07:40:52;18.99;64.31
26721;HTU21D;15950;51.112;6.966;2023-07-13T07:43:50;19.08;64.50
26721;HTU21D;15950;51.112;6.966;2023-07-13T07:46:50;19.27;63.93
26721;HTU21D;15950;51.112;6.966;2023-07-13T07:49:50;19.22;64.11
26721;HTU21D;15950;51.112;6.966;2023-07-13T07:52:51;19.16;63.96
26721;HTU21D;15950;51.112;6.966;2023-07-13T07:55:50;19.35;63.37
26721;HTU21D;15950;51.112;6.966;2023-07-13T07:58:50;19.07;64.11
26721;HTU21D;15950;51.112;6.966;2023-07-13T08:01:50;19.09;64.18
26721;HTU21D;15950;51.112;6.966;2023-07-13T08:04:51;19.10;64.17
26721;HTU21D;15950;51.112;6.966;2023-07-13T08:07:50;19.07;64.20
26721;HTU21D;15950;51.112;6.966;2023-07-13T08:10:51;19.26;64.37
26721;HTU21D;15950;51.112;6.966;2023-07-13T08:13:51;19.30;63.92
26721;HTU21D;15950;51.112;6.966;2023-07-13T08:16:50;19.17;64.24
26721;HTU21D;15950;51.112;6.966;2023-07-13T08:19:51;19.34;64.29
26721;HTU21D;15950;51.112;6.966;2023-07-13T08:22:50;19.43;64.01
26721;HTU21D;15950;51.112;6.966;2023-07-13T08:25:54;19.51;63.96
26721;HTU21D;15950;51.112;6.966;2023-07-13T08:28:50;19.62;63.73
26721;HTU21D;15950;51.112;6.966;2023-07-13T08:31:50;19.70;63.30
26721;HTU21D;15950;51.112;6.966;2023-07-13T08:34:51;19.64;63.50
26721;HTU21D;15950;51.112;6.966;2023-07-13T08:37:51;19.91;62.73
26721;HTU21D;15950;51.112;6.966;2023-07-13T08:40:55;20.10;62.18
26721;HTU21D;15950;51.112;6.966;2023-07-13T08:43:57;20.17;62.02
26721;HTU21D;15950;51.112;6.966;2023-07-13T08:46:52;20.16;62.02
26721;HTU21D;15950;51.112;6.966;2023-07-13T08:49:50;20.34;61.63
26721;HTU21D;15950;51.112;6.966;2023-07-13T08:52:51;20.39;61.91
26721;HTU21D;15950;51.112;6.966;2023-07-13T08:55:55;20.54;61.54
26721;HTU21D;15950;51.112;6.966;2023-07-13T08:58:56;20.69;61.34
26721;HTU21D;15950;51.112;6.966;2023-07-13T09:04:59;20.93;60.32
26721;HTU21D;15950;51.112;6.966;2023-07-13T09:10:57;20.83;60.76
26721;HTU21D;15950;51.112;6.966;2023-07-13T09:14:01;20.96;59.89
26721;HTU21D;15950;51.112;6.966;2023-07-13T09:16:51;21.23;59.58
26721;HTU21D;15950;51.112;6.966;2023-07-13T09:22:51;20.90;59.84
26721;HTU21D;15950;51.112;6.966;2023-07-13T09:31:54;21.13;58.87
26721;HTU21D;15950;51.112;6.966;2023-07-13T09:34:52;21.03;59.08
26721;HTU21D;15950;51.112;6.966;2023-07-13T09:37:51;21.13;58.76
26721;HTU21D;15950;51.112;6.966;2023-07-13T09:46:55;21.54;57.44
26721;HTU21D;15950;51.112;6.966;2023-07-13T09:49:55;21.01;57.26
26721;HTU21D;15950;51.112;6.966;2023-07-13T09:52:50;20.93;57.62
26721;HTU21D;15950;51.112;6.966;2023-07-13T09:55:50;21.14;57.29
26721;HTU21D;15950;51.112;6.966;2023-07-13T09:58:50;21.53;56.53
26721;HTU21D;15950;51.112;6.966;2023-07-13T10:01:50;21.61;56.22
26721;HTU21D;15950;51.112;6.966;2023-07-13T10:04:56;21.33;55.14
26721;HTU21D;15950;51.112;6.966;2023-07-13T10:07:50;22.00;54.65
26721;HTU21D;15950;51.112;6.966;2023-07-13T10:11:01;21.78;54.84
26721;HTU21D;15950;51.112;6.966;2023-07-13T10:16:54;21.78;55.38
26721;HTU21D;15950;51.112;6.966;2023-07-13T10:19:50;21.88;54.81
26721;HTU21D;15950;51.112;6.966;2023-07-13T10:25:51;22.10;54.61
26721;HTU21D;15950;51.112;6.966;2023-07-13T10:28:54;21.76;54.40
26721;HTU21D;15950;51.112;6.966;2023-07-13T10:31:51;21.91;54.59
26721;HTU21D;15950;51.112;6.966;2023-07-13T10:34:51;21.75;54.30
26721;HTU21D;15950;51.112;6.966;2023-07-13T10:38:06;22.15;54.13
26721;HTU21D;15950;51.112;6.966;2023-07-13T10:40:56;22.23;53.38
26721;HTU21D;15950;51.112;6.966;2023-07-13T10:43:52;22.12;53.95
26721;HTU21D;15950;51.112;6.966;2023-07-13T10:46:50;21.98;53.53
26721;HTU21D;15950;51.112;6.966;2023-07-13T10:49:54;22.17;53.14
26721;HTU21D;15950;51.112;6.966;2023-07-13T10:52:53;22.19;53.09
26721;HTU21D;15950;51.112;6.966;2023-07-13T11:01:58;22.36;52.40
26721;HTU21D;15950;51.112;6.966;2023-07-13T11:04:52;21.91;52.91
26721;HTU21D;15950;51.112;6.966;2023-07-13T11:07:56;22.37;51.99
26721;HTU21D;15950;51.112;6.966;2023-07-13T11:10:53;22.45;51.96
26721;HTU21D;15950;51.112;6.966;2023-07-13T11:16:50;22.35;52.00
26721;HTU21D;15950;51.112;6.966;2023-07-13T11:19:51;22.04;52.36
26721;HTU21D;15950;51.112;6.966;2023-07-13T11:22:53;22.21;51.98
26721;HTU21D;15950;51.112;6.966;2023-07-13T11:25:50;22.16;52.22
26721;HTU21D;15950;51.112;6.966;2023-07-13T11:28:50;22.18;52.11
26721;HTU21D;15950;51.112;6.966;2023-07-13T11:31:56;22.50;52.04
26721;HTU21D;15950;51.112;6.966;2023-07-13T11:34:50;22.05;52.75
26721;HTU21D;15950;51.112;6.966;2023-07-13T11:37:51;22.16;52.67
26721;HTU21D;15950;51.112;6.966;2023-07-13T11:40:54;22.18;52.50
26721;HTU21D;15950;51.112;6.966;2023-07-13T11:43:53;22.05;51.96
26721;HTU21D;15950;51.112;6.966;2023-07-13T11:46:55;22.19;52.06
26721;HTU21D;15950;51.112;6.966;2023-07-13T11:49:55;22.26;52.06
26721;HTU21D;15950;51.112;6.966;2023-07-13T11:52:52;22.31;51.62
26721;HTU21D;15950;51.112;6.966;2023-07-13T11:55:50;22.22;51.87
26721;HTU21D;15950;51.112;6.966;2023-07-13T11:58:53;22.19;52.09
26721;HTU21D;15950;51.112;6.966;2023-07-13T12:01:52;22.38;51.73
26721;HTU21D;15950;51.112;6.966;2023-07-13T12:04:50;22.45;51.40
26721;HTU21D;15950;51.112;6.966;2023-07-13T12:07:51;22.28;51.08
26721;HTU21D;15950;51.112;6.966;2023-07-13T12:11:05;22.46;50.24
26721;HTU21D;15950;51.112;6.966;2023-07-13T12:13:50;22.37;50.40
26721;HTU21D;15950;51.112;6.966;2023-07-13T12:16:50;22.88;49.99
26721;HTU21D;15950;51.112;6.966;2023-07-13T12:19:52;23.04;49.73
26721;HTU21D;15950;51.112;6.966;2023-07-13T12:22:51;23.21;49.69
26721;HTU21D;15950;51.112;6.966;2023-07-13T12:25:51;23.22;49.92
26721;HTU21D;15950;51.112;6.966;2023-07-13T12:28:55;23.28;49.39
26721;HTU21D;15950;51.112;6.966;2023-07-13T12:31:51;23.00;49.51
26721;HTU21D;15950;51.112;6.966;2023-07-13T12:34:55;23.11;49.16
26721;HTU21D;15950;51.112;6.966;2023-07-13T12:37:51;23.17;49.07
26721;HTU21D;15950;51.112;6.966;2023-07-13T12:40:51;22.98;49.51
26721;HTU21D;15950;51.112;6.966;2023-07-13T12:43:50;23.29;48.65
26721;HTU21D;15950;51.112;6.966;2023-07-13T12:46:53;23.55;47.58
26721;HTU21D;15950;51.112;6.966;2023-07-13T12:49:54;23.11;47.45
26721;HTU21D;15950;51.112;6.966;2023-07-13T12:52:53;23.44;46.89
26721;HTU21D;15950;51.112;6.966;2023-07-13T12:55:54;23.47;47.09
26721;HTU21D;15950;51.112;6.966;2023-07-13T12:58:56;23.25;46.64
26721;HTU21D;15950;51.112;6.966;2023-07-13T13:01:50;23.42;46.86
26721;HTU21D;15950;51.112;6.966;2023-07-13T13:04:50;23.05;47.44
26721;HTU21D;15950;51.112;6.966;2023-07-13T13:07:50;23.25;47.57
26721;HTU21D;15950;51.112;6.966;2023-07-13T13:10:50;23.09;47.77
26721;HTU21D;15950;51.112;6.966;2023-07-13T13:13:50;23.24;47.30
26721;HTU21D;15950;51.112;6.966;2023-07-13T13:16:51;23.15;47.20
26721;HTU21D;15950;51.112;6.966;2023-07-13T13:19:51;23.46;47.05
26721;HTU21D;15950;51.112;6.966;2023-07-13T13:22:50;23.57;45.75
26721;HTU21D;15950;51.112;6.966;2023-07-13T13:25:50;23.67;45.33
26721;HTU21D;15950;51.112;6.966;2023-07-13T13:28:50;23.56;44.84
26721;HTU21D;15950;51.112;6.966;2023-07-13T13:31:51;23.71;44.67
26721;HTU21D;15950;51.112;6.966;2023-07-13T13:34:50;23.76;44.50
26721;HTU21D;15950;51.112;6.966;2023-07-13T13:37:50;23.60;44.64
26721;HTU21D;15950;51.112;6.966;2023-07-13T13:40:50;23.50;45.00
26721;HTU21D;15950;51.112;6.966;2023-07-13T13:43:50;23.35;44.06
26721;HTU21D;15950;51.112;6.966;2023-07-13T13:46:52;23.53;44.29
26721;HTU21D;15950;51.112;6.966;2023-07-13T13:49:50;23.31;44.89
26721;HTU21D;15950;51.112;6.966;2023-07-13T13:52:50;23.67;44.45
26721;HTU21D;15950;51.112;6.966;2023-07-13T13:55:50;23.57;44.23
26721;HTU21D;15950;51.112;6.966;2023-07-13T13:58:50;23.53;44.36
26721;HTU21D;15950;51.112;6.966;2023-07-13T14:01:50;23.69;44.01
26721;HTU21D;15950;51.112;6.966;2023-07-13T14:05:00;23.85;43.90
26721;HTU21D;15950;51.112;6.966;2023-07-13T14:07:50;23.72;44.17
26721;HTU21D;15950;51.112;6.966;2023-07-13T14:10:54;23.62;44.33
26721;HTU21D;15950;51.112;6.966;2023-07-13T14:13:55;23.69;44.29
26721;HTU21D;15950;51.112;6.966;2023-07-13T14:16:51;23.82;44.29
26721;HTU21D;15950;51.112;6.966;2023-07-13T14:19:51;23.86;44.35
26721;HTU21D;15950;51.112;6.966;2023-07-13T14:22:52;23.96;43.68
26721;HTU21D;15950;51.112;6.966;2023-07-13T14:25:50;23.95;42.93
26721;HTU21D;15950;51.112;6.966;2023-07-13T14:28:55;23.88;41.50
26721;HTU21D;15950;51.112;6.966;2023-07-13T14:31:51;23.87;41.44
26721;HTU21D;15950;51.112;6.966;2023-07-13T14:34:50;23.98;42.04
26721;HTU21D;15950;51.112;6.966;2023-07-13T14:37:51;23.94;41.94
26721;HTU21D;15950;51.112;6.966;2023-07-13T14:40:50;23.76;42.59
26721;HTU21D;15950;51.112;6.966;2023-07-13T14:43:50;23.65;42.92
26721;HTU21D;15950;51.112;6.966;2023-07-13T14:46:53;23.84;42.67
26721;HTU21D;15950;51.112;6.966;2023-07-13T14:49:50;23.77;43.02
26721;HTU21D;15950;51.112;6.966;2023-07-13T14:52:50;23.89;43.42
26721;HTU21D;15950;51.112;6.966;2023-07-13T14:55:50;23.90;44.00
26721;HTU21D;15950;51.112;6.966;2023-07-13T14:58:50;23.77;44.39
26721;HTU21D;15950;51.112;6.966;2023-07-13T15:01:50;24.02;43.73
26721;HTU21D;15950;51.112;6.966;2023-07-13T15:04:50;23.97;44.06
26721;HTU21D;15950;51.112;6.966;2023-07-13T15:07:51;23.82;44.11
26721;HTU21D;15950;51.112;6.966;2023-07-13T15:10:50;23.56;44.41
26721;HTU21D;15950;51.112;6.966;2023-07-13T15:13:50;23.66;44.45
26721;HTU21D;15950;51.112;6.966;2023-07-13T15:16:52;23.50;44.60
26721;HTU21D;15950;51.112;6.966;2023-07-13T15:19:50;23.49;45.44
26721;HTU21D;15950;51.112;6.966;2023-07-13T15:22:50;23.05;46.17
26721;HTU21D;15950;51.112;6.966;2023-07-13T15:25:50;22.25;55.86
26721;HTU21D;15950;51.112;6.966;2023-07-13T15:28:50;22.34;59.26
26721;HTU21D;15950;51.112;6.966;2023-07-13T15:31:50;22.37;57.90
26721;HTU21D;15950;51.112;6.966;2023-07-13T15:34:50;22.22;59.42
26721;HTU21D;15950;51.112;6.966;2023-07-13T15:37:51;21.86;61.07
26721;HTU21D;15950;51.112;6.966;2023-07-13T15:40:51;21.80;61.40
26721;HTU21D;15950;51.112;6.966;2023-07-13T15:43:52;21.66;62.68
26721;HTU21D;15950;51.112;6.966;2023-07-13T15:46:50;21.40;63.02
26721;HTU21D;15950;51.112;6.966;2023-07-13T15:49:50;20.89;63.39
26721;HTU21D;15950;51.112;6.966;2023-07-13T15:52:53;21.20;62.78
26721;HTU21D;15950;51.112;6.966;2023-07-13T15:55:51;21.24;62.52
26721;HTU21D;15950;51.112;6.966;2023-07-13T15:58:51;21.10;61.38
26721;HTU21D;15950;51.112;6.966;2023-07-13T16:01:50;21.15;61.83
26721;HTU21D;15950;51.112;6.966;2023-07-13T16:04:50;21.17;61.68
26721;HTU21D;15950;51.112;6.966;2023-07-13T16:07:52;21.29;61.22
26721;HTU21D;15950;51.112;6.966;2023-07-13T16:10:50;21.25;61.79
26721;HTU21D;15950;51.112;6.966;2023-07-13T16:13:51;21.75;60.19
26721;HTU21D;15950;51.112;6.966;2023-07-13T16:16:50;21.29;60.50
26721;HTU21D;15950;51.112;6.966;2023-07-13T16:19:50;20.84;61.13
26721;HTU21D;15950;51.112;6.966;2023-07-13T16:22:53;21.34;60.38
26721;HTU21D;15950;51.112;6.966;2023-07-13T16:25:50;21.41;59.77
26721;HTU21D;15950;51.112;6.966;2023-07-13T16:28:50;21.06;60.93
26721;HTU21D;15950;51.112;6.966;2023-07-13T16:34:50;20.97;60.56
26721;HTU21D;15950;51.112;6.966;2023-07-13T16:37:50;21.30;59.27
26721;HTU21D;15950;51.112;6.966;2023-07-13T16:40:50;20.88;60.05
26721;HTU21D;15950;51.112;6.966;2023-07-13T16:43:50;20.83;60.25
26721;HTU21D;15950;51.112;6.966;2023-07-13T16:46:52;21.31;59.40
26721;HTU21D;15950;51.112;6.966;2023-07-13T16:49:50;21.61;58.50
26721;HTU21D;15950;51.112;6.966;2023-07-13T16:52:52;20.76;58.16
26721;HTU21D;15950;51.112;6.966;2023-07-13T16:55:51;21.54;56.96
26721;HTU21D;15950;51.112;6.966;2023-07-13T16:58:50;21.71;56.45
26721;HTU21D;15950;51.112;6.966;2023-07-13T17:01:50;21.34;56.32
26721;HTU21D;15950;51.112;6.966;2023-07-13T17:04:50;21.56;56.08
26721;HTU21D;15950;51.112;6.966;2023-07-13T17:07:50;21.59;54.98
26721;HTU21D;15950;51.112;6.966;2023-07-13T17:10:56;20.94;55.06
26721;HTU21D;15950;51.112;6.966;2023-07-13T17:13:50;20.99;54.55
26721;HTU21D;15950;51.112;6.966;2023-07-13T17:16:53;21.12;53.70
26721;HTU21D;15950;51.112;6.966;2023-07-13T17:19:52;21.10;53.69
26721;HTU21D;15950;51.112;6.966;2023-07-13T17:22:51;21.27;53.61
26721;HTU21D;15950;51.112;6.966;2023-07-13T17:25:51;20.89;53.84
26721;HTU21D;15950;51.112;6.966;2023-07-13T17:28:50;20.86;53.54
26721;HTU21D;15950;51.112;6.966;2023-07-13T17:31:50;20.94;52.89
26721;HTU21D;15950;51.112;6.966;2023-07-13T17:34:50;21.27;52.69
26721;HTU21D;15950;51.112;6.966;2023-07-13T17:37:53;21.21;52.36
26721;HTU21D;15950;51.112;6.966;2023-07-13T17:40:50;21.60;51.82
26721;HTU21D;15950;51.112;6.966;2023-07-13T17:43:50;21.86;51.24
26721;HTU21D;15950;51.112;6.966;2023-07-13T17:46:50;21.86;51.70
26721;HTU21D;15950;51.112;6.966;2023-07-13T17:49:50;21.54;51.90
26721;HTU21D;15950;51.112;6.966;2023-07-13T17:52:50;20.92;52.66
26721;HTU21D;15950;51.112;6.966;2023-07-13T17:55:51;21.37;52.13
26721;HTU21D;15950;51.112;6.966;2023-07-13T17:58:51;21.24;52.40
26721;HTU21D;15950;51.112;6.966;2023-07-13T18:01:50;21.59;52.21
26721;HTU21D;15950;51.112;6.966;2023-07-13T18:04:50;21.76;51.67
26721;HTU21D;15950;51.112;6.966;2023-07-13T18:07:54;21.81;51.37
26721;HTU21D;15950;51.112;6.966;2023-07-13T18:10:52;21.21;52.17
26721;HTU21D;15950;51.112;6.966;2023-07-13T18:13:51;21.03;52.59
26721;HTU21D;15950;51.112;6.966;2023-07-13T18:16:55;21.62;52.31
26721;HTU21D;15950;51.112;6.966;2023-07-13T18:19:50;21.33;52.96
26721;HTU21D;15950;51.112;6.966;2023-07-13T18:22:51;21.69;52.32
26721;HTU21D;15950;51.112;6.966;2023-07-13T18:25:51;21.51;52.30
26721;HTU21D;15950;51.112;6.966;2023-07-13T18:28:50;21.71;52.05
26721;HTU21D;15950;51.112;6.966;2023-07-13T18:31:50;21.74;51.76
26721;HTU21D;15950;51.112;6.966;2023-07-13T18:34:50;21.48;51.99
26721;HTU21D;15950;51.112;6.966;2023-07-13T18:37:50;21.78;51.46
26721;HTU21D;15950;51.112;6.966;2023-07-13T18:40:51;21.96;51.03
26721;HTU21D;15950;51.112;6.966;2023-07-13T18:43:50;21.96;51.07
26721;HTU21D;15950;51.112;6.966;2023-07-13T18:46:50;21.78;51.64
26721;HTU21D;15950;51.112;6.966;2023-07-13T18:49:51;21.71;52.11
26721;HTU21D;15950;51.112;6.966;2023-07-13T18:52:50;21.49;51.79
26721;HTU21D;15950;51.112;6.966;2023-07-13T18:55:50;21.67;51.56
26721;HTU21D;15950;51.112;6.966;2023-07-13T18:58:51;21.76;51.09
26721;HTU21D;15950;51.112;6.966;2023-07-13T19:01:50;21.82;50.38
26721;HTU21D;15950;51.112;6.966;2023-07-13T19:04:50;21.64;50.59
26721;HTU21D;15950;51.112;6.966;2023-07-13T19:07:50;21.86;50.42
26721;HTU21D;15950;51.112;6.966;2023-07-13T19:10:52;21.93;50.35
26721;HTU21D;15950;51.112;6.966;2023-07-13T19:13:50;21.95;50.04
26721;HTU21D;15950;51.112;6.966;2023-07-13T19:16:51;21.98;50.02